createdAt,value
2019-01-11T00:00:03.106Z,40.67
2019-01-11T00:00:34.277Z,40.90
2019-01-11T00:01:05.477Z,40.95
2019-01-11T00:01:36.634Z,41.23
2019-01-11T00:02:07.824Z,42.15
2019-01-11T00:02:39.010Z,38.73
2019-01-11T00:03:10.180Z,41.02
2019-01-11T00:03:41.388Z,41.48
2019-01-11T00:04:12.558Z,41.98
2019-01-11T00:04:43.699Z,40.40
2019-01-11T00:05:14.856Z,39.75
2019-01-11T00:05:46.026Z,41.88
2019-01-11T00:06:17.190Z,43.00
2019-01-11T00:06:48.356Z,44.83
2019-01-11T00:07:19.542Z,41.13
2019-01-11T00:07:50.755Z,43.10
2019-01-11T00:08:21.918Z,41.70
2019-01-11T00:08:53.075Z,44.40
2019-01-11T00:09:24.234Z,41.35
2019-01-11T00:09:55.401Z,42.08
2019-01-11T00:10:26.593Z,45.38
2019-01-11T00:10:57.780Z,44.77
2019-01-11T00:11:28.950Z,42.55
2019-01-11T00:12:00.108Z,45.10
2019-01-11T00:12:31.274Z,44.58
2019-01-11T00:13:02.482Z,42.48
2019-01-11T00:13:33.692Z,44.30
2019-01-11T00:14:04.913Z,42.27
2019-01-11T00:14:36.056Z,43.70
2019-01-11T00:15:07.224Z,44.08
2019-01-11T00:15:38.410Z,41.15
2019-01-11T00:16:09.589Z,42.55
2019-01-11T00:16:40.772Z,40.90
2019-01-11T00:17:11.934Z,42.40
2019-01-11T00:17:43.091Z,41.00
2019-01-11T00:18:14.251Z,40.17
2019-01-11T00:18:45.452Z,42.53
2019-01-11T00:19:16.622Z,41.37
2019-01-11T00:19:47.789Z,38.70
2019-01-11T00:20:18.966Z,37.48
2019-01-11T00:20:50.146Z,38.10
2019-01-11T00:21:21.315Z,37.88
2019-01-11T00:21:52.497Z,36.65
2019-01-11T00:22:23.659Z,38.73
2019-01-11T00:22:54.869Z,37.42
2019-01-11T00:23:26.044Z,35.65
2019-01-11T00:23:57.216Z,34.15
2019-01-11T00:24:30.735Z,35.92
2019-01-11T00:25:01.927Z,34.30
2019-01-11T00:25:33.293Z,34.78
2019-01-11T00:26:04.452Z,33.42
2019-01-11T00:26:35.658Z,34.08
2019-01-11T00:27:06.812Z,33.30
2019-01-11T00:27:37.985Z,32.40
2019-01-11T00:28:09.148Z,32.00
2019-01-11T00:28:40.319Z,32.03
2019-01-11T00:29:11.493Z,33.05
2019-01-11T00:29:42.652Z,33.35
2019-01-11T00:30:13.827Z,32.45
2019-01-11T00:30:45.070Z,28.83
2019-01-11T00:31:16.240Z,31.45
2019-01-11T00:31:47.412Z,32.42
2019-01-11T00:32:18.569Z,31.00
2019-01-11T00:32:49.755Z,28.23
2019-01-11T00:33:20.933Z,28.65
2019-01-11T00:33:52.097Z,29.63
2019-01-11T00:34:23.278Z,27.17
2019-01-11T00:34:54.443Z,30.05
2019-01-11T00:35:25.612Z,29.92
2019-01-11T00:35:56.834Z,28.90
2019-01-11T00:36:28.013Z,27.85
2019-01-11T00:36:59.173Z,27.35
2019-01-11T00:37:30.354Z,26.42
2019-01-11T00:38:01.503Z,26.42
2019-01-11T00:38:32.660Z,27.70
2019-01-11T00:39:03.831Z,27.75
2019-01-11T00:39:35.004Z,28.55
2019-01-11T00:40:06.162Z,28.32
2019-01-11T00:40:37.324Z,26.37
2019-01-11T00:41:08.550Z,26.33
2019-01-11T00:41:41.868Z,26.10
2019-01-11T00:42:13.045Z,24.92
2019-01-11T00:42:44.214Z,25.97
2019-01-11T00:43:15.382Z,24.63
2019-01-11T00:43:46.544Z,25.50
2019-01-11T00:44:17.711Z,24.55
2019-01-11T00:44:48.864Z,26.12
2019-01-11T00:45:20.026Z,25.50
2019-01-11T00:45:51.211Z,24.65
2019-01-11T00:46:22.410Z,26.80
2019-01-11T00:46:53.571Z,25.95
2019-01-11T00:47:24.752Z,24.45
2019-01-11T00:47:55.913Z,25.50
2019-01-11T00:48:27.076Z,24.70
2019-01-11T00:48:58.851Z,25.43
2019-01-11T00:49:30.022Z,24.45
2019-01-11T00:50:01.194Z,26.73
2019-01-11T00:50:32.364Z,23.45
2019-01-11T00:51:03.519Z,23.95
2019-01-11T00:51:34.684Z,24.45
2019-01-11T00:52:05.845Z,21.70
2019-01-11T00:52:39.107Z,22.10
2019-01-11T00:53:10.273Z,19.85
2019-01-11T00:53:43.260Z,21.60
2019-01-11T00:54:14.418Z,20.77
2019-01-11T00:54:45.579Z,19.12
2019-01-11T00:55:16.730Z,19.52
2019-01-11T00:55:49.032Z,20.00
2019-01-11T00:56:20.189Z,20.15
2019-01-11T00:56:51.362Z,18.87
2019-01-11T00:57:22.601Z,19.15
2019-01-11T00:57:53.770Z,18.37
2019-01-11T00:58:24.934Z,19.23
2019-01-11T00:58:56.087Z,20.23
2019-01-11T00:59:27.314Z,19.27
2019-01-11T00:59:58.493Z,19.37
2019-01-11T01:00:29.681Z,19.82
2019-01-11T01:01:00.855Z,19.10
2019-01-11T01:01:32.049Z,18.67
2019-01-11T01:02:03.214Z,19.90
2019-01-11T01:02:34.373Z,18.75
2019-01-11T01:03:05.544Z,18.80
2019-01-11T01:03:36.707Z,18.40
2019-01-11T01:04:07.916Z,19.15
2019-01-11T01:04:39.077Z,19.90
2019-01-11T01:05:10.254Z,16.23
2019-01-11T01:05:41.427Z,18.92
2019-01-11T01:06:12.601Z,19.12
2019-01-11T01:06:43.773Z,17.27
2019-01-11T01:07:15.029Z,16.37
2019-01-11T01:07:46.220Z,18.35
2019-01-11T01:08:17.421Z,18.62
2019-01-11T01:08:48.583Z,18.62
2019-01-11T01:09:19.788Z,18.65
2019-01-11T01:09:50.950Z,18.12
2019-01-11T01:10:22.112Z,18.05
2019-01-11T01:10:53.287Z,17.17
2019-01-11T01:11:24.454Z,16.05
2019-01-11T01:11:55.610Z,16.90
2019-01-11T01:12:26.784Z,18.35
2019-01-11T01:12:57.967Z,15.93
2019-01-11T01:13:29.131Z,16.93
2019-01-11T01:14:00.301Z,15.20
2019-01-11T01:14:31.529Z,15.25
2019-01-11T01:15:02.709Z,16.93
2019-01-11T01:15:33.878Z,16.48
2019-01-11T01:16:05.042Z,17.48
2019-01-11T01:16:36.231Z,16.77
2019-01-11T01:17:07.416Z,15.43
2019-01-11T01:17:38.575Z,16.30
2019-01-11T01:18:09.731Z,16.87
2019-01-11T01:18:40.914Z,17.65
2019-01-11T01:19:12.076Z,18.77
2019-01-11T01:19:43.284Z,15.98
2019-01-11T01:20:14.446Z,16.77
2019-01-11T01:20:45.607Z,15.65
2019-01-11T01:21:16.784Z,15.95
2019-01-11T01:21:47.982Z,16.52
2019-01-11T01:22:19.149Z,15.98
2019-01-11T01:22:50.302Z,16.05
2019-01-11T01:23:21.475Z,16.07
2019-01-11T01:23:52.688Z,16.52
2019-01-11T01:24:23.880Z,16.25
2019-01-11T01:24:55.046Z,16.12
2019-01-11T01:25:26.224Z,15.48
2019-01-11T01:25:57.412Z,15.88
2019-01-11T01:26:28.568Z,15.70
2019-01-11T01:26:59.749Z,15.28
2019-01-11T01:27:30.918Z,14.15
2019-01-11T01:28:02.081Z,15.90
2019-01-11T01:28:33.265Z,15.15
2019-01-11T01:29:04.421Z,14.00
2019-01-11T01:29:35.581Z,14.85
2019-01-11T01:30:06.772Z,13.58
2019-01-11T01:30:37.938Z,16.30
2019-01-11T01:31:09.095Z,15.13
2019-01-11T01:31:40.257Z,15.00
2019-01-11T01:32:11.439Z,15.68
2019-01-11T01:32:42.612Z,15.08
2019-01-11T01:33:13.836Z,14.93
2019-01-11T01:33:44.999Z,13.90
2019-01-11T01:34:16.160Z,14.75
2019-01-11T01:34:47.314Z,15.63
2019-01-11T01:35:18.522Z,14.18
2019-01-11T01:35:49.687Z,14.65
2019-01-11T01:36:20.857Z,15.38
2019-01-11T01:36:52.008Z,16.70
2019-01-11T01:37:23.246Z,15.00
2019-01-11T01:37:54.418Z,14.05
2019-01-11T01:38:25.592Z,15.35
2019-01-11T01:38:56.762Z,16.80
2019-01-11T01:39:27.923Z,15.18
2019-01-11T01:39:59.142Z,15.08
2019-01-11T01:40:30.303Z,14.50
2019-01-11T01:41:01.476Z,13.65
2019-01-11T01:41:32.643Z,13.62
2019-01-11T01:42:03.818Z,15.20
2019-01-11T01:42:34.996Z,14.90
2019-01-11T01:43:06.177Z,16.75
2019-01-11T01:43:37.337Z,15.10
2019-01-11T01:44:08.503Z,14.78
2019-01-11T01:44:39.671Z,15.08
2019-01-11T01:45:10.877Z,15.55
2019-01-11T01:45:42.044Z,16.35
2019-01-11T01:46:13.227Z,15.83
2019-01-11T01:46:44.435Z,14.78
2019-01-11T01:47:15.559Z,14.35
2019-01-11T01:47:46.726Z,15.80
2019-01-11T01:48:18.439Z,16.32
2019-01-11T01:48:49.643Z,14.07
2019-01-11T01:49:26.398Z,15.05
2019-01-11T01:49:53.695Z,16.75
2019-01-11T01:50:24.858Z,16.27
2019-01-11T01:50:56.080Z,15.90
2019-01-11T01:51:27.245Z,15.78
2019-01-11T01:51:58.423Z,15.32
2019-01-11T01:52:29.614Z,15.32
2019-01-11T01:53:00.781Z,15.70
2019-01-11T01:53:31.963Z,14.53
2019-01-11T01:54:03.124Z,14.43
2019-01-11T01:54:34.308Z,15.95
2019-01-11T01:55:05.538Z,14.53
2019-01-11T01:55:36.685Z,15.63
2019-01-11T01:56:07.847Z,14.90
2019-01-11T01:56:39.026Z,16.00
2019-01-11T01:57:10.196Z,14.70
2019-01-11T01:57:41.350Z,14.55
2019-01-11T01:58:12.576Z,14.65
2019-01-11T01:58:43.741Z,14.90
2019-01-11T01:59:14.909Z,13.83
2019-01-11T01:59:46.138Z,15.20
2019-01-11T02:00:17.294Z,14.75
2019-01-11T02:00:48.519Z,15.35
2019-01-11T02:01:19.725Z,14.43
2019-01-11T02:01:50.889Z,13.88
2019-01-11T02:02:22.090Z,13.30
2019-01-11T02:02:53.241Z,13.60
2019-01-11T02:03:24.406Z,14.85
2019-01-11T02:03:55.564Z,13.98
2019-01-11T02:04:26.782Z,13.88
2019-01-11T02:04:57.936Z,14.23
2019-01-11T02:05:29.148Z,15.13
2019-01-11T02:06:00.343Z,15.20
2019-01-11T02:06:31.539Z,13.78
2019-01-11T02:07:02.706Z,14.53
2019-01-11T02:07:33.872Z,15.65
2019-01-11T02:08:05.035Z,15.03
2019-01-11T02:08:36.202Z,14.35
2019-01-11T02:09:07.366Z,14.63
2019-01-11T02:09:38.534Z,15.58
2019-01-11T02:10:09.689Z,14.95
2019-01-11T02:10:40.900Z,14.95
2019-01-11T02:11:12.087Z,15.60
2019-01-11T02:11:43.239Z,14.87
2019-01-11T02:12:14.464Z,15.58
2019-01-11T02:12:45.648Z,15.28
2019-01-11T02:13:16.817Z,15.88
2019-01-11T02:13:47.984Z,15.30
2019-01-11T02:14:19.156Z,14.98
2019-01-11T02:14:50.330Z,15.40
2019-01-11T02:15:21.524Z,13.50
2019-01-11T02:15:52.725Z,17.20
2019-01-11T02:16:23.881Z,16.85
2019-01-11T02:16:55.049Z,16.30
2019-01-11T02:17:26.265Z,16.95
2019-01-11T02:17:57.434Z,15.78
2019-01-11T02:18:28.619Z,15.90
2019-01-11T02:18:59.780Z,17.10
2019-01-11T02:19:33.043Z,17.40
2019-01-11T02:20:03.841Z,17.40
2019-01-11T02:20:35.003Z,16.00
2019-01-11T02:21:06.166Z,15.75
2019-01-11T02:21:37.342Z,16.62
2019-01-11T02:22:08.506Z,17.55
2019-01-11T02:22:39.685Z,16.87
2019-01-11T02:23:10.843Z,16.55
2019-01-11T02:23:42.057Z,17.20
2019-01-11T02:24:13.212Z,15.85
2019-01-11T02:24:44.386Z,14.40
2019-01-11T02:25:15.554Z,16.67
2019-01-11T02:25:46.728Z,17.73
2019-01-11T02:26:17.958Z,16.95
2019-01-11T02:26:49.112Z,16.17
2019-01-11T02:27:20.273Z,16.25
2019-01-11T02:27:51.447Z,14.53
2019-01-11T02:28:22.626Z,16.77
2019-01-11T02:28:53.843Z,15.80
2019-01-11T02:29:24.999Z,16.87
2019-01-11T02:29:56.177Z,16.57
2019-01-11T02:30:27.341Z,17.52
2019-01-11T02:30:58.498Z,16.62
2019-01-11T02:31:29.670Z,14.93
2019-01-11T02:32:00.829Z,15.30
2019-01-11T02:32:31.993Z,11.95
2019-01-11T02:33:03.167Z,15.23
2019-01-11T02:33:34.336Z,15.75
2019-01-11T02:34:05.569Z,15.85
2019-01-11T02:34:36.747Z,15.95
2019-01-11T02:35:07.905Z,16.05
2019-01-11T02:35:39.086Z,15.60
2019-01-11T02:36:10.266Z,15.35
2019-01-11T02:36:41.453Z,14.90
2019-01-11T02:37:12.614Z,14.73
2019-01-11T02:37:43.769Z,15.83
2019-01-11T02:38:15.020Z,13.80
2019-01-11T02:38:46.191Z,16.12
2019-01-11T02:39:17.341Z,15.08
2019-01-11T02:39:48.524Z,15.90
2019-01-11T02:40:19.678Z,15.48
2019-01-11T02:40:50.896Z,13.83
2019-01-11T02:41:22.073Z,15.55
2019-01-11T02:41:54.390Z,15.40
2019-01-11T02:42:25.562Z,15.32
2019-01-11T02:42:56.767Z,15.50
2019-01-11T02:43:27.930Z,16.35
2019-01-11T02:43:59.116Z,17.35
2019-01-11T02:44:30.296Z,14.45
2019-01-11T02:45:01.455Z,15.98
2019-01-11T02:45:32.613Z,14.40
2019-01-11T02:46:03.780Z,14.43
2019-01-11T02:46:34.938Z,15.72
2019-01-11T02:47:06.169Z,14.98
2019-01-11T02:47:37.330Z,16.85
2019-01-11T02:48:08.502Z,15.30
2019-01-11T02:48:39.681Z,17.00
2019-01-11T02:49:10.883Z,15.93
2019-01-11T02:49:42.054Z,15.88
2019-01-11T02:50:13.220Z,14.75
2019-01-11T02:50:44.384Z,16.32
2019-01-11T02:51:15.561Z,14.35
2019-01-11T02:51:46.724Z,15.72
2019-01-11T02:52:17.933Z,15.88
2019-01-11T02:52:49.094Z,15.68
2019-01-11T02:53:20.255Z,14.93
2019-01-11T02:53:51.418Z,15.28
2019-01-11T02:54:22.601Z,14.90
2019-01-11T02:54:53.764Z,14.23
2019-01-11T02:55:24.928Z,13.50
2019-01-11T02:55:56.115Z,15.05
2019-01-11T02:56:27.267Z,15.85
2019-01-11T02:56:58.492Z,17.02
2019-01-11T02:57:29.648Z,14.23
2019-01-11T02:58:00.818Z,15.43
2019-01-11T02:58:31.986Z,16.00
2019-01-11T02:59:03.199Z,15.53
2019-01-11T02:59:34.359Z,16.05
2019-01-11T03:00:05.553Z,12.95
2019-01-11T03:00:36.744Z,13.85
2019-01-11T03:01:07.909Z,15.93
2019-01-11T03:01:39.110Z,16.48
2019-01-11T03:02:10.272Z,15.78
2019-01-11T03:02:41.444Z,17.32
2019-01-11T03:03:12.642Z,16.55
2019-01-11T03:03:43.817Z,16.80
2019-01-11T03:04:15.001Z,14.60
2019-01-11T03:04:46.180Z,15.70
2019-01-11T03:05:17.394Z,14.23
2019-01-11T03:05:48.554Z,13.68
2019-01-11T03:06:19.723Z,15.40
2019-01-11T03:06:50.895Z,16.07
2019-01-11T03:07:22.064Z,14.10
2019-01-11T03:07:53.222Z,15.68
2019-01-11T03:08:24.393Z,14.80
2019-01-11T03:08:55.556Z,15.65
2019-01-11T03:09:26.737Z,14.10
2019-01-11T03:09:57.910Z,12.15
2019-01-11T03:10:29.139Z,14.38
2019-01-11T03:11:00.322Z,15.35
2019-01-11T03:11:31.492Z,14.10
2019-01-11T03:12:02.668Z,12.95
2019-01-11T03:12:33.848Z,16.20
2019-01-11T03:13:05.051Z,16.12
2019-01-11T03:13:36.217Z,16.52
2019-01-11T03:14:07.394Z,15.80
2019-01-11T03:14:38.552Z,15.00
2019-01-11T03:15:09.711Z,15.75
2019-01-11T03:15:40.876Z,14.25
2019-01-11T03:16:12.033Z,14.50
2019-01-11T03:16:43.200Z,14.85
2019-01-11T03:17:14.401Z,15.85
2019-01-11T03:17:45.561Z,14.53
2019-01-11T03:18:16.723Z,15.60
2019-01-11T03:18:47.911Z,14.93
2019-01-11T03:19:19.073Z,15.68
2019-01-11T03:19:50.229Z,15.30
2019-01-11T03:20:21.398Z,15.53
2019-01-11T03:20:52.565Z,15.18
2019-01-11T03:21:23.746Z,15.03
2019-01-11T03:21:54.952Z,16.40
2019-01-11T03:22:26.124Z,16.10
2019-01-11T03:22:57.285Z,15.63
2019-01-11T03:23:28.438Z,15.18
2019-01-11T03:23:59.610Z,15.72
2019-01-11T03:24:30.770Z,14.95
2019-01-11T03:25:01.988Z,15.65
2019-01-11T03:25:33.190Z,16.23
2019-01-11T03:26:04.399Z,15.35
2019-01-11T03:26:35.648Z,15.13
2019-01-11T03:27:06.821Z,14.90
2019-01-11T03:27:37.984Z,16.00
2019-01-11T03:28:09.164Z,16.10
2019-01-11T03:28:40.338Z,15.93
2019-01-11T03:29:11.554Z,17.48
2019-01-11T03:29:42.768Z,15.58
2019-01-11T03:30:13.961Z,15.68
2019-01-11T03:30:45.133Z,15.05
2019-01-11T03:31:16.302Z,16.60
2019-01-11T03:31:47.502Z,16.65
2019-01-11T03:32:18.651Z,16.37
2019-01-11T03:32:49.813Z,15.80
2019-01-11T03:33:21.011Z,15.90
2019-01-11T03:33:52.187Z,15.83
2019-01-11T03:34:23.406Z,14.47
2019-01-11T03:34:54.593Z,16.17
2019-01-11T03:35:25.737Z,14.87
2019-01-11T03:35:56.903Z,16.40
2019-01-11T03:36:28.064Z,15.43
2019-01-11T03:36:59.223Z,17.00
2019-01-11T03:37:30.383Z,14.58
2019-01-11T03:38:01.602Z,16.00
2019-01-11T03:38:32.778Z,15.18
2019-01-11T03:39:03.935Z,15.63
2019-01-11T03:39:35.116Z,15.75
2019-01-11T03:40:06.279Z,16.23
2019-01-11T03:40:37.438Z,15.32
2019-01-11T03:41:08.606Z,15.95
2019-01-11T03:41:39.815Z,13.90
2019-01-11T03:42:10.983Z,16.60
2019-01-11T03:42:42.156Z,17.17
2019-01-11T03:43:13.365Z,14.78
2019-01-11T03:43:44.535Z,15.90
2019-01-11T03:44:15.718Z,16.32
2019-01-11T03:44:46.882Z,15.35
2019-01-11T03:45:18.074Z,16.27
2019-01-11T03:45:49.258Z,16.42
2019-01-11T03:46:20.416Z,16.20
2019-01-11T03:46:51.580Z,16.73
2019-01-11T03:47:22.746Z,17.45
2019-01-11T03:47:53.967Z,16.62
2019-01-11T03:48:25.127Z,14.47
2019-01-11T03:48:56.291Z,15.43
2019-01-11T03:49:27.466Z,15.98
2019-01-11T03:49:58.645Z,15.55
2019-01-11T03:50:29.830Z,15.78
2019-01-11T03:51:00.991Z,16.75
2019-01-11T03:51:32.149Z,15.93
2019-01-11T03:52:03.330Z,17.32
2019-01-11T03:52:34.496Z,15.78
2019-01-11T03:53:05.729Z,15.40
2019-01-11T03:53:36.903Z,17.30
2019-01-11T03:54:08.077Z,16.52
2019-01-11T03:54:39.253Z,17.00
2019-01-11T03:55:10.403Z,16.77
2019-01-11T03:55:41.577Z,16.65
2019-01-11T03:56:12.754Z,17.37
2019-01-11T03:56:43.926Z,16.48
2019-01-11T03:57:15.162Z,15.80
2019-01-11T03:57:46.313Z,15.50
2019-01-11T03:58:17.494Z,17.12
2019-01-11T03:58:48.650Z,16.65
2019-01-11T03:59:19.812Z,14.38
2019-01-11T03:59:51.042Z,14.90
2019-01-11T04:00:22.213Z,15.98
2019-01-11T04:00:53.375Z,15.85
2019-01-11T04:01:24.547Z,16.35
2019-01-11T04:01:55.716Z,16.60
2019-01-11T04:02:26.936Z,15.90
2019-01-11T04:02:58.148Z,14.55
2019-01-11T04:03:29.328Z,16.50
2019-01-11T04:04:01.929Z,15.72
2019-01-11T04:04:33.204Z,13.85
2019-01-11T04:05:04.389Z,12.35
2019-01-11T04:05:35.549Z,14.65
2019-01-11T04:06:06.708Z,15.55
2019-01-11T04:06:37.900Z,13.72
2019-01-11T04:07:09.055Z,13.75
2019-01-11T04:07:40.207Z,15.25
2019-01-11T04:08:11.387Z,15.23
2019-01-11T04:08:42.563Z,15.78
2019-01-11T04:09:13.722Z,15.63
2019-01-11T04:09:44.927Z,14.35
2019-01-11T04:10:16.115Z,15.50
2019-01-11T04:10:47.265Z,14.75
2019-01-11T04:11:18.458Z,14.07
2019-01-11T04:11:49.619Z,15.58
2019-01-11T04:12:20.778Z,15.30
2019-01-11T04:12:51.989Z,14.28
2019-01-11T04:13:30.308Z,15.35
2019-01-11T04:13:56.068Z,16.55
2019-01-11T04:14:27.231Z,14.83
2019-01-11T04:14:58.433Z,15.28
2019-01-11T04:15:29.568Z,15.25
2019-01-11T04:16:00.777Z,15.13
2019-01-11T04:16:33.979Z,14.47
2019-01-11T04:17:05.148Z,15.28
2019-01-11T04:17:36.325Z,12.60
2019-01-11T04:18:07.495Z,13.05
2019-01-11T04:18:38.676Z,11.95
2019-01-11T04:19:09.837Z,12.98
2019-01-11T04:19:41.050Z,15.00
2019-01-11T04:20:12.231Z,13.62
2019-01-11T04:20:43.395Z,14.28
2019-01-11T04:21:14.551Z,14.03
2019-01-11T04:21:45.733Z,13.62
2019-01-11T04:22:16.916Z,13.20
2019-01-11T04:22:48.099Z,13.15
2019-01-11T04:23:19.276Z,12.90
2019-01-11T04:23:50.492Z,13.48
2019-01-11T04:24:21.663Z,12.43
2019-01-11T04:24:52.817Z,12.37
2019-01-11T04:25:23.988Z,13.00
2019-01-11T04:25:55.151Z,13.40
2019-01-11T04:26:26.323Z,12.70
2019-01-11T04:26:57.482Z,12.93
2019-01-11T04:27:28.642Z,13.03
2019-01-11T04:27:59.799Z,11.90
2019-01-11T04:28:30.950Z,12.15
2019-01-11T04:29:02.187Z,12.65
2019-01-11T04:29:33.360Z,11.50
2019-01-11T04:30:04.520Z,10.53
2019-01-11T04:30:35.711Z,10.50
2019-01-11T04:31:06.862Z,12.23
2019-01-11T04:31:38.021Z,12.33
2019-01-11T04:32:09.186Z,12.05
2019-01-11T04:32:40.343Z,12.88
2019-01-11T04:33:11.574Z,12.30
2019-01-11T04:33:42.747Z,12.07
2019-01-11T04:34:13.913Z,11.65
2019-01-11T04:34:45.077Z,10.88
2019-01-11T04:35:16.309Z,12.30
2019-01-11T04:35:47.479Z,12.15
2019-01-11T04:36:18.648Z,11.73
2019-01-11T04:36:49.831Z,10.78
2019-01-11T04:37:21.014Z,11.95
2019-01-11T04:37:52.189Z,11.28
2019-01-11T04:38:23.385Z,11.48
2019-01-11T04:38:54.552Z,12.20
2019-01-11T04:39:25.722Z,12.18
2019-01-11T04:39:56.905Z,10.50
2019-01-11T04:40:34.104Z,12.30
2019-01-11T04:41:01.094Z,11.03
2019-01-11T04:41:32.275Z,11.10
2019-01-11T04:42:03.433Z,11.65
2019-01-11T04:42:34.605Z,10.75
2019-01-11T04:43:05.784Z,12.03
2019-01-11T04:43:36.947Z,11.05
2019-01-11T04:44:08.112Z,11.28
2019-01-11T04:44:39.299Z,11.85
2019-01-11T04:45:10.496Z,11.12
2019-01-11T04:45:41.695Z,9.38
2019-01-11T04:46:12.945Z,11.35
2019-01-11T04:46:44.196Z,11.12
2019-01-11T04:47:15.606Z,11.30
2019-01-11T04:47:46.928Z,12.23
2019-01-11T04:48:18.189Z,11.85
2019-01-11T04:48:49.407Z,11.05
2019-01-11T04:49:20.576Z,9.83
2019-01-11T04:49:51.761Z,10.13
2019-01-11T04:50:22.949Z,9.83
2019-01-11T04:50:54.161Z,10.93
2019-01-11T04:51:25.398Z,10.93
2019-01-11T04:51:56.581Z,9.45
2019-01-11T04:52:27.828Z,10.72
2019-01-11T04:52:59.076Z,10.70
2019-01-11T04:53:30.317Z,11.55
2019-01-11T04:54:01.557Z,11.10
2019-01-11T04:54:32.807Z,8.88
2019-01-11T04:55:04.008Z,10.53
2019-01-11T04:55:35.230Z,11.03
2019-01-11T04:56:06.430Z,10.98
2019-01-11T04:56:37.643Z,11.35
2019-01-11T04:57:08.896Z,10.80
2019-01-11T04:57:40.120Z,10.58
2019-01-11T04:58:11.321Z,10.55
2019-01-11T04:58:42.501Z,10.65
2019-01-11T04:59:13.754Z,11.22
2019-01-11T04:59:44.944Z,9.95
2019-01-11T05:00:16.171Z,10.90
2019-01-11T05:00:47.371Z,9.35
2019-01-11T05:01:18.575Z,7.80
2019-01-11T05:01:49.865Z,10.03
2019-01-11T05:02:21.054Z,11.93
2019-01-11T05:02:52.250Z,10.32
2019-01-11T05:03:23.538Z,11.15
2019-01-11T05:03:54.737Z,11.03
2019-01-11T05:04:25.961Z,11.28
2019-01-11T05:04:57.157Z,11.43
2019-01-11T05:05:28.374Z,11.73
2019-01-11T05:05:59.567Z,9.05
2019-01-11T05:06:30.744Z,10.48
2019-01-11T05:07:01.937Z,11.05
2019-01-11T05:07:33.133Z,11.38
2019-01-11T05:08:04.371Z,11.50
2019-01-11T05:08:35.577Z,12.40
2019-01-11T05:09:06.783Z,12.50
2019-01-11T05:09:37.966Z,11.78
2019-01-11T05:10:09.167Z,11.48
2019-01-11T05:10:40.358Z,11.53
2019-01-11T05:11:11.593Z,10.65
2019-01-11T05:11:42.813Z,10.35
2019-01-11T05:12:14.069Z,11.78
2019-01-11T05:12:45.282Z,11.80
2019-01-11T05:13:16.488Z,11.65
2019-01-11T05:13:47.685Z,12.18
2019-01-11T05:14:18.963Z,10.95
2019-01-11T05:14:50.152Z,11.53
2019-01-11T05:15:21.338Z,9.85
2019-01-11T05:15:52.580Z,9.88
2019-01-11T05:16:23.771Z,10.72
2019-01-11T05:16:54.939Z,11.70
2019-01-11T05:17:26.165Z,11.70
2019-01-11T05:17:57.366Z,11.40
2019-01-11T05:18:28.566Z,13.62
2019-01-11T05:18:59.802Z,11.63
2019-01-11T05:19:31.029Z,13.13
2019-01-11T05:20:02.224Z,12.70
2019-01-11T05:20:33.404Z,12.23
2019-01-11T05:21:04.617Z,10.95
2019-01-11T05:21:35.837Z,11.40
2019-01-11T05:22:07.092Z,11.20
2019-01-11T05:22:38.275Z,11.12
2019-01-11T05:23:09.509Z,10.43
2019-01-11T05:23:40.711Z,11.35
2019-01-11T05:24:11.907Z,10.08
2019-01-11T05:24:43.149Z,12.18
2019-01-11T05:25:14.399Z,11.48
2019-01-11T05:25:45.586Z,11.48
2019-01-11T05:26:16.757Z,10.72
2019-01-11T05:26:47.968Z,11.28
2019-01-11T05:27:19.136Z,11.97
2019-01-11T05:27:50.332Z,11.25
2019-01-11T05:28:21.586Z,11.40
2019-01-11T05:28:52.809Z,11.55
2019-01-11T05:29:24.010Z,11.50
2019-01-11T05:29:55.322Z,9.30
2019-01-11T05:30:26.512Z,10.90
2019-01-11T05:30:57.735Z,12.63
2019-01-11T05:31:28.965Z,11.83
2019-01-11T05:32:00.148Z,11.93
2019-01-11T05:32:31.673Z,8.70
2019-01-11T05:33:02.948Z,12.13
2019-01-11T05:33:34.172Z,11.75
2019-01-11T05:34:05.368Z,9.80
2019-01-11T05:34:36.536Z,11.25
2019-01-11T05:35:07.722Z,11.50
2019-01-11T05:35:38.896Z,10.23
2019-01-11T05:36:10.122Z,11.83
2019-01-11T05:36:41.325Z,11.60
2019-01-11T05:37:12.582Z,11.93
2019-01-11T05:37:43.728Z,11.15
2019-01-11T05:38:14.945Z,9.88
2019-01-11T05:38:46.179Z,9.25
2019-01-11T05:39:17.378Z,8.78
2019-01-11T05:39:48.636Z,10.60
2019-01-11T05:40:19.860Z,10.78
2019-01-11T05:40:51.111Z,10.40
2019-01-11T05:41:22.340Z,10.15
2019-01-11T05:41:53.549Z,9.80
2019-01-11T05:42:24.781Z,9.48
2019-01-11T05:42:56.005Z,10.55
2019-01-11T05:43:27.238Z,8.88
2019-01-11T05:43:58.472Z,11.18
2019-01-11T05:44:29.714Z,9.73
2019-01-11T05:45:00.948Z,10.15
2019-01-11T05:45:32.117Z,9.20
2019-01-11T05:46:03.323Z,10.95
2019-01-11T05:46:34.902Z,11.05
2019-01-11T05:47:06.101Z,10.45
2019-01-11T05:47:37.316Z,11.10
2019-01-11T05:48:08.515Z,9.43
2019-01-11T05:48:39.754Z,9.70
2019-01-11T05:49:11.147Z,10.48
2019-01-11T05:49:42.384Z,10.78
2019-01-11T05:50:13.576Z,9.30
2019-01-11T05:50:44.798Z,10.78
2019-01-11T05:51:16.014Z,11.28
2019-01-11T05:51:47.196Z,10.85
2019-01-11T05:52:18.420Z,10.10
2019-01-11T05:52:49.675Z,11.05
2019-01-11T05:53:23.041Z,10.20
2019-01-11T05:53:54.248Z,9.30
2019-01-11T05:54:26.432Z,10.43
2019-01-11T05:54:57.651Z,10.48
2019-01-11T05:55:28.861Z,9.00
2019-01-11T05:56:00.043Z,10.55
2019-01-11T05:56:31.236Z,10.85
2019-01-11T05:57:02.427Z,11.70
2019-01-11T05:57:33.621Z,8.60
2019-01-11T05:58:04.837Z,11.97
2019-01-11T05:58:36.077Z,11.85
2019-01-11T05:59:07.306Z,10.25
2019-01-11T05:59:38.577Z,8.65
2019-01-11T06:00:09.821Z,10.23
2019-01-11T06:00:41.009Z,11.15
2019-01-11T06:01:12.242Z,10.88
2019-01-11T06:01:43.435Z,9.75
2019-01-11T06:02:14.636Z,11.70
2019-01-11T06:02:45.848Z,10.93
2019-01-11T06:03:17.021Z,8.95
2019-01-11T06:03:48.212Z,11.12
2019-01-11T06:04:19.424Z,11.73
2019-01-11T06:04:50.695Z,10.13
2019-01-11T06:05:21.944Z,12.18
2019-01-11T06:05:53.247Z,9.85
2019-01-11T06:06:24.517Z,9.10
2019-01-11T06:06:55.707Z,10.18
2019-01-11T06:07:26.944Z,12.07
2019-01-11T06:07:58.142Z,9.45
2019-01-11T06:08:29.346Z,9.68
2019-01-11T06:09:00.548Z,9.40
2019-01-11T06:09:31.779Z,11.65
2019-01-11T06:10:03.215Z,11.15
2019-01-11T06:10:34.414Z,12.58
2019-01-11T06:11:05.612Z,9.80
2019-01-11T06:11:36.875Z,11.08
2019-01-11T06:12:08.089Z,8.85
2019-01-11T06:12:39.279Z,10.72
2019-01-11T06:13:10.515Z,10.18
2019-01-11T06:13:41.713Z,12.03
2019-01-11T06:14:12.936Z,12.00
2019-01-11T06:14:44.162Z,11.83
2019-01-11T06:15:15.434Z,11.80
2019-01-11T06:15:46.629Z,11.10
2019-01-11T06:16:17.826Z,9.30
2019-01-11T06:16:49.001Z,9.68
2019-01-11T06:17:20.264Z,9.95
2019-01-11T06:17:51.527Z,11.45
2019-01-11T06:18:22.787Z,11.65
2019-01-11T06:18:54.003Z,11.85
2019-01-11T06:19:25.222Z,10.85
2019-01-11T06:19:56.423Z,11.05
2019-01-11T06:20:30.451Z,10.40
2019-01-11T06:21:00.616Z,11.28
2019-01-11T06:21:31.856Z,9.60
2019-01-11T06:22:03.159Z,9.20
2019-01-11T06:22:34.432Z,10.13
2019-01-11T06:23:05.638Z,9.38
2019-01-11T06:23:36.845Z,11.43
2019-01-11T06:24:08.102Z,12.73
2019-01-11T06:24:39.299Z,8.93
2019-01-11T06:25:10.499Z,12.50
2019-01-11T06:25:41.761Z,10.63
2019-01-11T06:26:13.023Z,11.97
2019-01-11T06:26:44.309Z,11.18
2019-01-11T06:27:15.530Z,9.25
2019-01-11T06:27:46.774Z,10.65
2019-01-11T06:28:18.010Z,9.23
2019-01-11T06:28:49.277Z,9.23
2019-01-11T06:29:20.547Z,9.63
2019-01-11T06:29:51.800Z,15.13
2019-01-11T06:30:22.992Z,12.18
2019-01-11T06:30:54.257Z,15.63
2019-01-11T06:31:25.563Z,16.87
2019-01-11T06:31:56.756Z,11.43
2019-01-11T06:32:27.992Z,12.28
2019-01-11T06:32:59.226Z,11.50
2019-01-11T06:33:30.390Z,12.35
2019-01-11T06:34:01.574Z,13.50
2019-01-11T06:34:32.781Z,12.90
2019-01-11T06:35:03.939Z,11.90
2019-01-11T06:35:35.243Z,10.35
2019-01-11T06:36:06.447Z,13.75
2019-01-11T06:36:37.641Z,11.45
2019-01-11T06:37:08.872Z,8.95
2019-01-11T06:37:40.077Z,13.68
2019-01-11T06:38:11.267Z,15.50
2019-01-11T06:38:42.470Z,9.53
2019-01-11T06:39:13.707Z,9.23
2019-01-11T06:39:44.945Z,12.03
2019-01-11T06:40:16.129Z,12.53
2019-01-11T06:40:47.421Z,8.70
2019-01-11T06:41:18.664Z,19.40
2019-01-11T06:41:49.900Z,13.58
2019-01-11T06:42:21.286Z,12.35
2019-01-11T06:42:52.559Z,10.48